Time;durP1;ratioP1;P1;durP2;ratioP2;P2;SDS_P1;SDS_P2;PMS_P1;PMS_P2;Temp;Humidity;BMP_temperature;BMP_pressure;BME280_temperature;BME280_humidity;BME280_pressure;Samples;Min_cycle;Max_cycle;Signal;HPM_P1;HPM_P2
2023/07/20 00:04:12;;;;;;;2.20;1.90;;;20.10;93.30;;;20.87;54.22;97742.31;10361837;28;20313;-80
2023/07/20 00:09:16;;;;;;;2.78;2.28;;;20.10;93.70;;;20.96;54.29;97742.44;10374379;28;20589;-79
2023/07/20 00:14:19;;;;;;;2.85;2.13;;;20.10;93.60;;;20.83;55.17;97751.78;10371205;28;20234;-78
2023/07/20 00:19:25;;;;;;;2.10;1.90;;;20.00;94.10;;;20.72;55.19;97742.06;10370985;28;20280;-78
2023/07/20 00:24:28;;;;;;;2.72;2.25;;;19.90;94.20;;;20.65;56.08;97746.28;10366894;28;20231;-80
2023/07/20 00:29:31;;;;;;;2.92;2.08;;;19.80;95.20;;;20.61;56.23;97744.53;10370157;28;20230;-78
2023/07/20 00:34:36;;;;;;;3.38;2.22;;;19.80;94.80;;;20.55;55.77;97750.50;10370898;28;20230;-79
2023/07/20 00:39:39;;;;;;;4.20;2.40;;;19.70;94.90;;;20.40;56.74;97735.50;10368012;28;20310;-78
2023/07/20 00:44:42;;;;;;;2.60;2.40;;;19.50;95.40;;;20.36;56.87;97745.81;10372381;28;20302;-80
2023/07/20 00:49:47;;;;;;;2.65;2.40;;;19.40;95.70;;;20.26;58.10;97749.97;10370286;28;20898;-80
2023/07/20 00:54:51;;;;;;;4.47;2.55;;;19.30;96.40;;;20.17;59.07;97745.50;10370505;28;20234;-79
2023/07/20 00:59:55;;;;;;;3.55;2.50;;;19.20;97.20;;;19.99;58.95;97747.75;10372532;28;20230;-77
2023/07/20 01:04:59;;;;;;;2.63;2.42;;;19.00;97.20;;;19.78;58.43;97756.03;10363774;28;20227;-78
2023/07/20 01:10:11;;;;;;;3.65;2.88;;;18.90;96.60;;;19.85;56.67;97757.00;10360561;28;20236;-78
2023/07/20 01:15:15;;;;;;;3.53;2.83;;;18.90;95.70;;;19.89;55.53;97751.06;10372494;28;20256;-79
2023/07/20 01:20:23;;;;;;;2.50;2.30;;;19.00;95.10;;;19.82;55.07;97755.22;10359658;28;20227;-78
2023/07/20 01:25:49;;;;;;;3.13;2.90;;;18.90;94.70;;;19.78;54.94;97748.25;10364634;28;20241;-79
2023/07/20 01:31:00;;;;;;;2.78;2.50;;;18.90;94.40;;;19.78;54.88;97759.50;10366243;28;20230;-79
2023/07/20 01:36:06;;;;;;;2.80;2.53;;;18.90;94.60;;;19.77;55.02;97755.16;10372990;28;20703;-78
2023/07/20 01:41:10;;;;;;;2.80;2.30;;;18.90;94.70;;;19.66;55.50;97758.38;10368893;28;20231;-78
2023/07/20 01:46:13;;;;;;;2.90;2.60;;;18.70;95.00;;;19.52;55.76;97763.28;10365577;28;20727;-79
2023/07/20 01:51:18;;;;;;;3.20;2.90;;;18.60;94.80;;;19.36;55.94;97757.75;10366985;28;20265;-81
2023/07/20 01:56:22;;;;;;;4.03;2.88;;;18.40;95.20;;;19.29;56.68;97768.84;10368842;28;20226;-79
2023/07/20 02:01:28;;;;;;;3.85;3.00;;;18.40;96.00;;;19.22;57.41;97763.50;10362317;28;20223;-79
2023/07/20 02:06:33;;;;;;;3.00;2.70;;;18.30;96.20;;;19.16;57.90;97761.66;10362398;28;20226;-80
2023/07/20 02:11:36;;;;;;;2.75;2.55;;;18.20;96.60;;;19.08;58.72;97765.78;10366532;28;20241;-79
2023/07/20 02:16:39;;;;;;;3.25;2.95;;;18.10;96.90;;;18.97;57.67;97769.84;10370740;28;20222;-78
2023/07/20 02:21:44;;;;;;;3.20;2.90;;;18.10;96.40;;;18.86;57.89;97780.00;10371487;28;20252;-77
2023/07/20 02:26:47;;;;;;;2.47;2.25;;;18.00;96.60;;;18.78;58.43;97776.34;10373663;28;20397;-77
2023/07/20 02:31:50;;;;;;;3.30;2.72;;;17.90;96.80;;;18.83;58.91;97770.44;10370360;28;20226;-79
2023/07/20 02:36:56;;;;;;;4.15;2.83;;;17.90;97.30;;;18.72;59.92;97773.56;10368461;28;20758;-78
2023/07/20 02:41:59;;;;;;;3.67;2.72;;;17.80;98.30;;;18.58;61.63;97781.00;10376051;28;20229;-79
2023/07/20 02:47:02;;;;;;;2.92;2.72;;;17.60;99.00;;;18.41;63.14;97784.06;10370280;28;20250;-78
2023/07/20 02:52:08;;;;;;;2.90;2.70;;;17.40;99.90;;;18.22;64.08;97779.25;10370635;28;20245;-78
2023/07/20 02:57:11;;;;;;;3.33;3.03;;;17.20;99.90;;;17.96;64.50;97783.72;10369177;28;20241;-80
2023/07/20 03:02:14;;;;;;;3.00;2.70;;;17.00;99.90;;;17.79;64.11;97806.53;10366477;28;20222;-79
2023/07/20 03:07:18;;;;;;;3.10;2.78;;;16.90;99.90;;;17.71;65.17;97798.56;10369680;28;20619;-80
2023/07/20 03:12:24;;;;;;;2.97;2.67;;;16.80;99.90;;;17.64;65.98;97795.75;10377071;28;20237;-81
2023/07/20 03:17:27;;;;;;;3.92;2.97;;;16.80;99.90;;;17.41;67.47;97808.88;10371225;28;20410;-80
2023/07/20 03:22:33;;;;;;;3.90;3.03;;;16.50;99.90;;;17.40;67.53;97796.81;10376407;28;20230;-79
2023/07/20 03:27:36;;;;;;;3.42;3.00;;;16.50;99.90;;;17.32;66.51;97812.09;10377877;28;20937;-78
2023/07/20 03:32:39;;;;;;;3.88;2.95;;;16.40;99.90;;;17.18;68.71;97815.09;10371910;28;20260;-80
2023/07/20 03:37:43;;;;;;;3.13;2.90;;;16.30;99.90;;;17.13;68.89;97821.81;10359679;28;20230;-77
2023/07/20 03:42:47;;;;;;;4.45;3.08;;;16.20;99.90;;;17.05;70.23;97814.72;10357383;28;20237;-78
2023/07/20 03:47:50;;;;;;;4.22;3.25;;;16.10;99.90;;;17.02;71.38;97814.59;10361950;28;20232;-78
2023/07/20 03:52:55;;;;;;;3.65;3.30;;;16.00;99.90;;;17.00;71.41;97826.59;10361892;28;20226;-77
2023/07/20 03:57:58;;;;;;;3.15;2.90;;;16.00;99.90;;;17.02;71.98;97830.09;10356858;28;20241;-77
2023/07/20 04:03:02;;;;;;;3.70;3.40;;;16.00;99.90;;;17.01;71.76;97825.78;10359937;28;20263;-78
2023/07/20 04:08:06;;;;;;;4.30;3.35;;;16.10;99.90;;;17.01;71.74;97830.94;10358705;28;20740;-77
2023/07/20 04:13:10;;;;;;;6.50;3.33;;;16.10;99.90;;;16.99;72.26;97837.75;10355072;28;20230;-78
2023/07/20 04:18:13;;;;;;;3.78;3.08;;;16.00;99.90;;;17.03;72.93;97837.03;10357007;28;20237;-77
2023/07/20 04:23:17;;;;;;;4.43;3.15;;;16.00;99.90;;;17.01;73.52;97841.25;10350489;28;20280;-77
2023/07/20 04:28:21;;;;;;;4.25;3.40;;;16.00;99.90;;;16.76;74.85;97841.28;10352965;28;20226;-77
2023/07/20 04:33:24;;;;;;;3.55;3.25;;;15.80;99.90;;;16.88;74.37;97836.53;10356654;28;20301;-78
2023/07/20 04:38:28;;;;;;;3.50;3.20;;;15.90;99.90;;;17.01;73.25;97846.44;10359694;28;20226;-78
2023/07/20 04:43:31;;;;;;;5.32;3.75;;;16.00;99.90;;;17.06;72.81;97836.25;10361774;28;20230;-78
2023/07/20 04:48:34;;;;;;;4.10;3.50;;;16.10;99.90;;;17.14;73.14;97844.22;10355821;28;20232;-77
2023/07/20 04:53:39;;;;;;;3.40;3.10;;;16.20;99.90;;;17.28;71.90;97849.00;10362149;28;20238;-79
2023/07/20 04:58:42;;;;;;;4.07;3.33;;;16.30;99.90;;;17.61;70.47;97847.38;10366693;28;20288;-80
2023/07/20 05:03:45;;;;;;;3.42;3.13;;;16.50;99.90;;;17.90;68.90;97843.94;10362812;28;20236;-80
2023/07/20 05:08:51;;;;;;;3.60;3.28;;;16.70;99.90;;;18.28;67.64;97844.09;10358208;28;20228;-80
2023/07/20 05:13:54;;;;;;;4.63;3.33;;;17.10;99.90;;;18.68;66.14;97847.69;10362699;28;20257;-80
2023/07/20 05:18:58;;;;;;;4.07;2.97;;;17.60;99.90;;;19.30;63.28;97848.34;10368171;28;20253;-79
2023/07/20 05:24:02;;;;;;;4.90;3.20;;;18.00;99.90;;;19.93;60.49;97838.47;10355589;28;20234;-79
2023/07/20 05:29:05;;;;;;;3.15;2.88;;;18.70;99.90;;;21.34;54.80;97841.75;10367449;28;20226;-78
2023/07/20 05:34:08;;;;;;;2.72;2.50;;;20.40;97.60;;;22.54;50.67;97829.31;10363501;28;20226;-78
2023/07/20 05:39:13;;;;;;;2.90;2.70;;;21.20;94.70;;;23.39;47.63;97840.44;10371196;28;20249;-80
2023/07/20 05:44:16;;;;;;;4.68;3.00;;;22.00;92.30;;;23.79;46.81;97825.00;10369794;28;20231;-80
2023/07/20 05:49:19;;;;;;;3.88;2.97;;;22.00;92.20;;;24.63;45.03;97842.66;10356628;28;20249;-80
2023/07/20 05:54:25;;;;;;;4.90;4.40;;;22.70;90.90;;;25.20;43.02;97847.91;10357443;28;20244;-80
2023/07/20 05:59:29;;;;;;;9.48;8.57;;;23.20;89.60;;;25.97;42.31;97834.63;10365061;28;20309;-80
2023/07/20 06:04:33;;;;;;;3.33;3.03;;;23.80;87.50;;;26.47;39.80;97836.97;10372833;28;20790;-80
2023/07/20 06:09:37;;;;;;;4.97;2.80;;;24.00;84.30;;;26.57;39.62;97839.56;10374788;28;20707;-80
2023/07/20 06:14:40;;;;;;;4.15;2.97;;;24.10;83.50;;;27.04;38.40;97843.53;10369585;28;20305;-80
2023/07/20 06:19:43;;;;;;;3.55;2.70;;;24.50;81.20;;;27.50;37.45;97832.63;10365202;28;20222;-80
2023/07/20 06:24:48;;;;;;;2.92;2.28;;;24.90;80.60;;;27.67;36.54;97841.22;10377789;28;20286;-81
2023/07/20 06:29:51;;;;;;;2.60;2.40;;;25.40;78.30;;;27.07;37.93;97833.91;10379637;28;20222;-80
2023/07/20 06:34:54;;;;;;;2.90;2.60;;;24.70;80.00;;;26.70;38.92;97834.22;10376400;28;20249;-81
2023/07/20 06:39:58;;;;;;;3.38;2.25;;;24.20;81.80;;;26.35;39.48;97830.91;10382240;28;20309;-81
2023/07/20 06:45:06;;;;;;;4.55;2.10;;;24.20;81.20;;;26.15;39.43;97829.28;10369213;28;20240;-80
2023/07/20 06:50:11;;;;;;;3.40;1.77;;;24.00;80.80;;;26.18;38.99;97828.41;10366721;28;20236;-79
2023/07/20 06:55:21;;;;;;;2.45;1.80;;;24.30;80.00;;;25.95;39.10;97834.63;10372052;28;20773;-80
2023/07/20 07:00:26;;;;;;;4.00;1.77;;;24.00;79.40;;;26.03;39.71;97830.22;10368347;28;21046;-80
2023/07/20 07:05:29;;;;;;;2.65;1.52;;;24.30;80.40;;;26.32;38.84;97829.19;10362296;28;20242;-80
2023/07/20 07:10:37;;;;;;;2.35;1.70;;;24.80;78.30;;;26.49;38.72;97829.94;10375759;28;20232;-80
2023/07/20 07:15:41;;;;;;;3.42;2.30;;;24.70;79.00;;;26.87;38.27;97836.72;10372437;28;20230;-79
2023/07/20 07:20:52;;;;;;;4.18;2.55;;;24.80;78.50;;;26.61;39.12;97829.06;10370737;28;20217;-79
2023/07/20 07:25:57;;;;;;;3.60;2.30;;;24.70;80.00;;;26.21;39.95;97833.63;10360924;28;21002;-79
2023/07/20 07:31:00;;;;;;;3.53;2.60;;;24.10;81.20;;;25.98;39.58;97832.00;10369903;28;20225;-79
2023/07/20 07:36:04;;;;;;;3.30;2.40;;;24.10;80.00;;;25.98;40.15;97826.78;10367916;28;20253;-80
2023/07/20 07:41:08;;;;;;;2.30;2.10;;;24.30;80.20;;;25.85;40.30;97827.69;10374806;28;20234;-79
2023/07/20 07:46:12;;;;;;;3.92;2.58;;;24.10;80.50;;;26.01;40.02;97828.47;10368772;28;20250;-78
2023/07/20 07:51:15;;;;;;;2.10;1.95;;;24.30;79.60;;;25.78;40.55;97826.84;10365344;28;20231;-78
2023/07/20 07:56:22;;;;;;;3.95;2.67;;;24.20;80.10;;;25.48;41.18;97833.03;10371789;28;20230;-79
2023/07/20 08:01:26;;;;;;;2.88;2.50;;;23.90;81.30;;;25.98;40.24;97829.41;10365946;28;20237;-80
2023/07/20 08:06:29;;;;;;;3.50;2.67;;;24.10;80.50;;;25.85;40.33;97825.06;10367095;28;20296;-80
2023/07/20 08:11:34;;;;;;;4.38;2.55;;;24.00;80.20;;;26.34;39.63;97829.19;10370976;28;21212;-80
2023/07/20 08:16:37;;;;;;;4.18;2.60;;;24.30;80.10;;;27.49;37.32;97823.88;10364306;28;20745;-79
2023/07/20 08:21:40;;;;;;;3.67;2.28;;;25.50;77.40;;;28.04;36.03;97815.38;10366357;28;20288;-79
2023/07/20 08:26:45;;;;;;;2.55;2.28;;;26.50;75.50;;;28.27;35.34;97811.53;10368509;28;20221;-80
2023/07/20 08:31:48;;;;;;;3.05;2.55;;;26.80;73.00;;;27.54;36.90;97805.47;10366470;28;20276;-80
2023/07/20 08:36:51;;;;;;;3.80;2.42;;;25.90;74.10;;;27.17;38.11;97809.34;10373687;28;20233;-79
2023/07/20 08:41:58;;;;;;;5.13;2.53;;;25.50;76.40;;;25.96;39.71;97804.94;10372369;28;20714;-79
2023/07/20 08:47:03;;;;;;;4.75;2.70;;;24.80;77.70;;;25.86;40.82;97805.84;10354126;28;20238;-80
2023/07/20 08:52:08;;;;;;;2.75;2.55;;;24.30;80.60;;;26.42;39.42;97802.03;10358796;28;20328;-80
2023/07/20 08:57:15;;;;;;;2.63;2.40;;;25.30;77.00;;;25.77;40.98;97808.50;10365670;28;20236;-80
2023/07/20 09:02:19;;;;;;;2.95;2.65;;;24.40;80.00;;;25.44;41.53;97807.75;10360862;28;20225;-80
2023/07/20 09:07:24;;;;;;;4.38;2.42;;;24.20;80.60;;;26.32;40.18;97792.50;10367527;28;20317;-80
2023/07/20 09:12:28;;;;;;;2.95;2.65;;;25.40;77.70;;;26.19;39.07;97794.34;10360662;28;20266;-80
2023/07/20 09:17:32;;;;;;;2.85;2.42;;;25.10;76.20;;;27.06;38.67;97791.94;10366911;28;20293;-80
2023/07/20 09:22:35;;;;;;;3.78;2.47;;;26.50;74.80;;;27.47;36.91;97790.63;10362292;28;20226;-80
2023/07/20 09:27:42;;;;;;;2.83;2.38;;;26.70;72.20;;;27.95;36.24;97783.06;10367976;28;20236;-80
2023/07/20 09:32:48;;;;;;;3.53;2.70;;;27.30;70.50;;;27.77;35.58;97784.16;10360535;28;20323;-80
2023/07/20 09:37:59;;;;;;;3.80;2.55;;;26.60;71.00;;;27.29;36.91;97803.09;10365583;28;20225;-80
2023/07/20 09:43:09;;;;;;;2.85;2.33;;;26.10;72.90;;;26.79;37.86;97803.56;10362470;28;20232;-80
2023/07/20 09:48:15;;;;;;;2.85;2.42;;;25.20;75.10;;;27.16;38.67;97796.25;10361009;28;20228;-80
2023/07/20 09:53:21;;;;;;;3.33;2.45;;;26.30;75.10;;;27.84;37.17;97784.09;10359441;28;20229;-81
2023/07/20 09:58:27;;;;;;;4.57;2.47;;;27.20;72.10;;;28.00;36.55;97787.38;10360606;28;20230;-80
2023/07/20 10:03:31;;;;;;;4.97;2.25;;;27.20;70.90;;;27.77;35.38;97790.28;10369613;28;20230;-81
2023/07/20 10:08:41;;;;;;;2.83;2.10;;;26.90;69.40;;;27.34;34.60;97777.66;10362503;28;20228;-81
2023/07/20 10:13:52;;;;;;;2.88;2.42;;;26.20;68.20;;;27.13;36.31;97767.38;10357666;28;20230;-81
2023/07/20 10:19:06;;;;;;;2.70;2.10;;;26.40;70.80;;;27.49;35.19;97760.84;10368287;28;20230;-81
2023/07/20 10:24:20;;;;;;;3.40;2.40;;;26.90;68.40;;;27.47;33.89;97754.78;10360933;28;20225;-81
2023/07/20 10:29:27;;;;;;;4.45;2.65;;;27.00;65.50;;;27.49;34.03;97744.25;10362512;28;20245;-81
2023/07/20 10:34:32;;;;;;;3.63;2.38;;;26.90;65.70;;;27.72;34.51;97739.56;10363008;28;20320;-79
2023/07/20 10:39:35;;;;;;;2.50;2.30;;;27.30;66.20;;;28.10;34.07;97753.97;10368862;28;20232;-80
2023/07/20 10:44:41;;;;;;;3.70;2.15;;;27.70;65.60;;;27.83;34.71;97748.19;10366573;28;20230;-80
2023/07/20 10:50:00;;;;;;;2.97;2.08;;;27.00;67.50;;;28.01;34.07;97746.19;10368241;28;20250;-80
2023/07/20 10:55:12;;;;;;;2.28;2.08;;;27.50;65.90;;;27.56;34.10;97741.53;10364468;28;20229;-81
2023/07/20 11:00:23;;;;;;;3.47;1.92;;;26.70;66.70;;;27.25;35.40;97733.16;10366839;28;20258;-80
2023/07/20 11:05:38;;;;;;;3.78;2.15;;;26.40;68.30;;;27.63;33.83;97718.66;10362333;28;20236;-80
2023/07/20 11:10:41;;;;;;;2.70;1.90;;;26.70;66.20;;;28.09;32.57;97712.78;10368799;28;21078;-80
2023/07/20 11:16:04;;;;;;;2.88;2.20;;;27.20;64.40;;;28.23;32.23;97708.19;10360930;28;20233;-78
2023/07/20 11:21:11;;;;;;;2.38;2.00;;;27.30;64.20;;;28.37;31.76;97713.22;10356180;28;20233;-79
2023/07/20 11:26:15;;;;;;;3.53;2.05;;;27.50;63.50;;;27.78;32.91;97725.47;10357379;28;20226;-80
2023/07/20 11:31:20;;;;;;;3.17;1.70;;;26.70;65.00;;;27.19;34.47;97714.84;10352975;28;20225;-78
2023/07/20 11:36:23;;;;;;;1.98;1.70;;;26.20;66.60;;;27.52;33.27;97710.91;10353710;28;20721;-79
2023/07/20 11:41:29;;;;;;;1.83;1.70;;;26.70;64.10;;;27.40;32.67;97706.69;10369620;28;20237;-79
2023/07/20 11:46:35;;;;;;;2.08;1.60;;;26.60;63.20;;;27.88;31.65;97702.59;10369134;28;20244;-80
2023/07/20 11:51:41;;;;;;;3.53;2.00;;;27.10;61.50;;;28.16;31.75;97703.03;10365939;28;20237;-80
2023/07/20 11:56:45;;;;;;;1.75;1.65;;;27.40;61.60;;;27.85;32.12;97693.88;10363615;28;20229;-79
2023/07/20 12:01:54;;;;;;;2.35;1.92;;;27.20;61.70;;;28.18;30.49;97688.97;10362349;28;20225;-78
2023/07/20 12:06:57;;;;;;;1.70;1.60;;;27.40;60.40;;;28.43;30.73;97683.34;10368636;28;20250;-80
2023/07/20 12:12:00;;;;;;;2.35;1.60;;;27.70;60.10;;;27.93;30.46;97678.00;10370414;28;20317;-79
2023/07/20 12:17:09;;;;;;;3.15;1.50;;;27.10;59.90;;;28.06;29.70;97678.66;10359349;28;20225;-81
2023/07/20 12:22:13;;;;;;;2.80;1.90;;;27.20;59.00;;;28.38;30.36;97672.88;10366839;28;20758;-80
2023/07/20 12:27:17;;;;;;;2.28;1.60;;;27.60;59.60;;;28.04;30.73;97677.81;10366705;28;20234;-80
2023/07/20 12:32:22;;;;;;;1.85;1.75;;;27.30;60.00;;;28.01;29.69;97672.59;10361158;28;20717;-80
2023/07/20 12:37:26;;;;;;;1.92;1.73;;;27.20;58.60;;;27.87;29.08;97664.94;10367005;28;20277;-80
2023/07/20 12:42:29;;;;;;;2.10;1.90;;;27.00;57.90;;;27.18;29.79;97652.72;10363209;28;20605;-79
2023/07/20 12:47:33;;;;;;;2.50;1.70;;;26.30;58.30;;;27.39;30.17;97652.47;10366647;28;20232;-80
2023/07/20 12:52:38;;;;;;;3.10;1.77;;;26.60;58.70;;;27.57;29.84;97640.81;10357936;28;20658;-80
2023/07/20 12:57:42;;;;;;;1.83;1.60;;;26.80;58.10;;;27.65;29.92;97648.59;10368773;28;20221;-80
2023/07/20 13:02:47;;;;;;;2.63;1.63;;;26.90;58.60;;;27.68;30.24;97647.69;10362637;28;20776;-80
2023/07/20 13:07:50;;;;;;;2.28;1.80;;;26.90;59.00;;;27.49;29.62;97639.19;10359956;28;20229;-80
2023/07/20 13:12:57;;;;;;;2.58;1.70;;;26.50;58.20;;;27.29;30.00;97627.22;10367422;28;20224;-81
2023/07/20 13:18:01;;;;;;;1.88;1.77;;;26.30;58.60;;;27.21;30.12;97621.19;10364919;28;20226;-80
2023/07/20 13:23:05;;;;;;;1.73;1.63;;;26.40;58.60;;;27.17;29.69;97620.38;10358237;28;20233;-80
2023/07/20 13:28:08;;;;;;;2.10;1.60;;;26.20;58.40;;;27.12;30.30;97623.91;10359385;28;20661;-81
2023/07/20 13:33:13;;;;;;;3.20;1.58;;;26.30;59.00;;;27.38;29.62;97629.69;10362521;28;20225;-80
2023/07/20 13:38:21;;;;;;;1.77;1.67;;;26.50;58.10;;;27.57;28.19;97614.56;10355146;28;20228;-80
2023/07/20 13:43:24;;;;;;;1.60;1.50;;;26.70;56.60;;;27.44;28.39;97617.38;10364761;28;20230;-80
2023/07/20 13:48:29;;;;;;;1.60;1.45;;;26.70;56.30;;;27.24;29.50;97605.41;10370318;28;20656;-80
2023/07/20 13:53:32;;;;;;;3.00;1.83;;;26.50;57.70;;;27.19;29.71;97602.00;10361081;28;20229;-80
2023/07/20 13:58:38;;;;;;;1.95;1.80;;;26.60;57.70;;;27.20;30.22;97600.22;10373354;28;20616;-80
2023/07/20 14:03:44;;;;;;;1.67;1.58;;;26.50;58.40;;;27.14;29.97;97606.38;10360532;28;20222;-79
2023/07/20 14:08:48;;;;;;;1.65;1.52;;;26.40;58.00;;;27.46;29.44;97584.97;10362671;28;21007;-79
2023/07/20 14:13:52;;;;;;;1.75;1.55;;;26.50;57.80;;;27.38;29.48;97592.94;10363343;28;20882;-79
2023/07/20 14:18:57;;;;;;;3.45;1.80;;;26.60;57.80;;;27.00;29.06;97582.94;10367268;28;20781;-79
2023/07/20 14:24:00;;;;;;;2.03;1.50;;;26.50;56.70;;;27.00;29.73;97580.31;10369876;28;20299;-79
2023/07/20 14:29:04;;;;;;;2.55;1.70;;;26.20;57.50;;;27.04;29.58;97583.75;10371093;28;20245;-80
2023/07/20 14:34:09;;;;;;;3.45;1.95;;;26.30;57.40;;;27.11;29.23;97577.56;10371867;28;20623;-79
2023/07/20 14:39:12;;;;;;;2.80;1.70;;;26.20;57.20;;;26.80;29.96;97577.94;10369126;28;20240;-79
2023/07/20 14:44:16;;;;;;;2.45;1.40;;;26.00;57.70;;;26.76;29.38;97565.78;10368877;28;20297;-81
2023/07/20 14:49:20;;;;;;;1.77;1.52;;;25.90;57.00;;;26.95;28.81;97562.00;10364672;28;20321;-78
2023/07/20 14:54:24;;;;;;;2.15;1.70;;;26.10;56.60;;;26.71;32.18;97570.19;10351130;28;20233;-77
2023/07/20 14:59:27;;;;;;;1.80;1.70;;;25.90;61.10;;;26.42;29.55;97560.88;10360775;28;20226;-79
2023/07/20 15:04:32;;;;;;;2.80;1.50;;;25.60;57.90;;;26.88;28.68;97555.13;10361537;28;20222;-78
2023/07/20 15:09:35;;;;;;;1.60;1.50;;;25.90;56.50;;;26.99;29.11;97554.13;10362163;28;20673;-81
2023/07/20 15:14:42;;;;;;;1.60;1.50;;;26.20;56.40;;;26.91;29.19;97557.69;10361120;28;20314;-81
2023/07/20 15:19:46;;;;;;;1.83;1.60;;;26.20;57.00;;;27.18;28.74;97547.75;10366993;28;20253;-79
2023/07/20 15:24:50;;;;;;;2.85;2.47;;;26.30;56.40;;;27.07;29.47;97533.88;10368246;28;20979;-80
2023/07/20 15:29:53;;;;;;;1.83;1.55;;;26.30;57.00;;;26.76;29.60;97531.69;10355689;28;20671;-78
2023/07/20 15:34:57;;;;;;;1.80;1.60;;;26.00;57.10;;;26.74;29.69;97530.81;10357016;28;20229;-78
2023/07/20 15:40:04;;;;;;;2.28;1.50;;;26.00;57.20;;;26.61;29.72;97535.38;10361288;28;20239;-80
2023/07/20 15:45:09;;;;;;;2.42;1.58;;;25.80;57.20;;;26.64;29.92;97518.69;10369228;28;20229;-78
2023/07/20 15:50:14;;;;;;;1.98;1.77;;;25.80;57.60;;;26.71;29.88;97517.75;10357340;28;20223;-81
2023/07/20 15:55:17;;;;;;;1.75;1.60;;;25.80;57.30;;;26.78;29.47;97516.75;10359699;28;20234;-78
2023/07/20 16:00:21;;;;;;;1.92;1.73;;;25.90;57.10;;;26.77;28.82;97511.56;10357271;28;20545;-79
2023/07/20 16:05:26;;;;;;;1.63;1.45;;;25.90;56.10;;;26.79;28.92;97515.91;10361555;28;20234;-79
2023/07/20 16:10:32;;;;;;;2.70;1.77;;;25.90;56.20;;;26.61;28.65;97508.25;10359736;28;20225;-77
2023/07/20 16:15:36;;;;;;;2.45;2.25;;;25.70;56.30;;;26.58;29.71;97514.38;10361659;28;20261;-78
2023/07/20 16:20:45;;;;;;;26.63;24.17;;;25.60;56.90;;;26.52;29.38;97509.22;10351367;28;20230;-79
2023/07/20 16:25:48;;;;;;;3.40;2.60;;;25.60;56.80;;;26.67;29.53;97502.91;10365061;28;20258;-77
2023/07/20 16:30:51;;;;;;;1.80;1.70;;;25.70;57.30;;;26.47;30.04;97496.16;10362202;28;20233;-81
2023/07/20 16:35:57;;;;;;;2.15;1.95;;;25.50;57.70;;;26.46;29.62;97498.78;10366915;28;20231;-77
2023/07/20 16:41:00;;;;;;;1.73;1.63;;;25.50;57.10;;;26.21;29.89;97498.19;10365443;28;20689;-77
2023/07/20 16:46:06;;;;;;;1.75;1.48;;;25.30;57.60;;;26.16;30.73;97493.03;10364957;28;20317;-78
2023/07/20 16:51:13;;;;;;;2.03;1.73;;;25.30;58.20;;;26.23;30.37;97485.94;10360213;28;20234;-78
2023/07/20 16:56:16;;;;;;;2.97;2.38;;;25.30;58.00;;;25.90;30.41;97481.91;10361833;28;20699;-77
2023/07/20 17:01:20;;;;;;;3.15;2.25;;;25.00;57.50;;;25.91;31.13;97483.69;10350649;28;20226;-77
2023/07/20 17:06:24;;;;;;;3.17;2.88;;;25.00;58.80;;;25.85;31.12;97479.38;10357621;28;20317;-77
2023/07/20 17:11:28;;;;;;;2.67;2.47;;;24.90;58.60;;;25.81;31.41;97482.84;10357015;28;20280;-80
2023/07/20 17:16:31;;;;;;;3.40;2.80;;;24.90;58.80;;;25.69;31.75;97493.44;10344805;28;20313;-78
2023/07/20 17:21:36;;;;;;;4.45;3.17;;;24.70;59.30;;;25.59;31.42;97487.44;10347734;28;20234;-76
2023/07/20 17:26:40;;;;;;;2.53;2.10;;;24.70;59.20;;;25.49;31.94;97491.84;10349295;28;20233;-78
2023/07/20 17:31:47;;;;;;;1.90;1.80;;;24.60;60.40;;;25.46;33.30;97494.50;10353992;28;20230;-78
2023/07/20 17:36:52;;;;;;;2.50;2.15;;;24.50;61.50;;;25.33;32.54;97495.50;10355561;28;20242;-78
2023/07/20 17:41:58;;;;;;;3.08;1.92;;;24.40;60.00;;;25.24;32.82;97495.53;10351014;28;20246;-80
2023/07/20 17:47:01;;;;;;;3.58;3.35;;;24.30;60.40;;;25.12;32.80;97486.91;10351303;28;20727;-79
2023/07/20 17:52:08;;;;;;;2.20;1.90;;;24.20;60.30;;;25.05;33.39;97498.25;10362806;28;20301;-76
2023/07/20 17:57:12;;;;;;;1.65;1.55;;;24.10;61.70;;;25.02;34.60;97495.66;10364806;28;20607;-78
2023/07/20 18:02:15;;;;;;;3.33;2.17;;;24.00;63.50;;;24.87;33.85;97490.53;10362500;28;20226;-78
2023/07/20 18:07:19;;;;;;;2.20;2.00;;;23.90;62.20;;;24.80;34.17;97492.28;10369145;28;20619;-77
2023/07/20 18:12:22;;;;;;;2.40;1.95;;;23.90;62.40;;;24.70;34.70;97498.47;10356257;28;20726;-76
2023/07/20 18:17:25;;;;;;;2.15;1.63;;;23.70;63.70;;;24.57;36.08;97489.78;10343168;28;20226;-78
2023/07/20 18:22:31;;;;;;;2.13;1.60;;;23.60;67.30;;;24.38;36.16;97481.16;10357895;28;20241;-76
2023/07/20 18:27:34;;;;;;;2.50;2.30;;;23.30;66.10;;;24.24;37.08;97490.78;10362251;28;20237;-77
2023/07/20 18:32:37;;;;;;;2.70;2.50;;;23.20;68.40;;;24.04;38.41;97481.25;10355329;28;20227;-77
2023/07/20 18:37:42;;;;;;;3.65;2.95;;;23.00;70.00;;;23.89;39.07;97481.25;10360984;28;20219;-78
2023/07/20 18:42:45;;;;;;;3.80;3.00;;;22.80;71.60;;;23.69;39.47;97488.22;10361997;28;20234;-78
2023/07/20 18:47:48;;;;;;;2.50;2.30;;;22.60;72.10;;;23.48;41.76;97489.97;10363799;28;20703;-77
2023/07/20 18:52:53;;;;;;;3.30;2.00;;;22.40;76.50;;;23.22;42.20;97503.00;10357877;28;20242;-78
2023/07/20 18:57:56;;;;;;;2.75;2.10;;;22.10;76.60;;;22.98;43.33;97498.63;10363944;28;20859;-79
2023/07/20 19:03:00;;;;;;;2.10;1.95;;;21.90;78.10;;;22.78;43.19;97506.38;10363660;28;20318;-78
2023/07/20 19:08:05;;;;;;;2.40;1.95;;;21.60;77.70;;;22.58;43.36;97514.13;10357874;28;20302;-77
2023/07/20 19:13:08;;;;;;;1.83;1.73;;;21.50;77.70;;;22.51;44.56;97516.69;10363426;28;20327;-77
2023/07/20 19:18:11;;;;;;;2.50;2.30;;;21.40;81.20;;;22.41;45.57;97511.44;10352807;28;20266;-78
2023/07/20 19:23:16;;;;;;;2.72;2.25;;;21.30;82.60;;;22.21;46.62;97521.75;10354575;28;20250;-77
2023/07/20 19:28:20;;;;;;;2.70;2.50;;;21.10;83.50;;;22.10;47.20;97526.00;10358716;28;20245;-78
2023/07/20 19:33:23;;;;;;;2.60;2.40;;;21.00;85.30;;;21.90;46.82;97528.47;10356302;28;20226;-77
2023/07/20 19:38:28;;;;;;;2.78;2.10;;;20.80;84.10;;;21.63;48.32;97528.25;10353085;28;20226;-78
2023/07/20 19:43:31;;;;;;;2.53;2.33;;;20.50;86.30;;;21.34;47.71;97537.50;10355663;28;20325;-78
2023/07/20 19:48:36;;;;;;;3.90;2.20;;;20.30;85.30;;;21.30;48.36;97540.09;10353166;28;20764;-77
2023/07/20 19:53:41;;;;;;;2.80;2.47;;;20.20;86.80;;;21.25;48.94;97544.34;10347455;28;20313;-77
2023/07/20 19:59:05;;;;;;;4.38;3.85;;;20.10;87.80;;;21.14;49.94;97541.66;10362335;28;20232;-77
2023/07/20 20:04:08;;;;;;;3.72;3.42;;;20.00;90.00;;;20.97;49.81;97536.28;10352113;28;20920;-77
2023/07/20 20:09:16;;;;;;;3.53;3.22;;;19.80;89.50;;;20.75;50.02;97544.72;10348532;28;20242;-75
2023/07/20 20:14:19;;;;;;;4.57;2.88;;;19.70;89.90;;;20.55;51.31;97542.72;10354884;28;20234;-76
2023/07/20 20:19:22;;;;;;;4.25;3.80;;;19.50;90.70;;;20.41;51.64;97546.84;10352927;28;20227;-76
2023/07/20 20:24:27;;;;;;;5.90;5.40;;;19.30;91.00;;;20.20;52.16;97550.91;10359022;28;20234;-76
2023/07/20 20:29:30;;;;;;;5.00;4.00;;;19.20;91.40;;;20.12;52.27;97554.22;10355118;28;20248;-77
2023/07/20 20:34:34;;;;;;;4.15;2.67;;;19.10;91.70;;;20.01;51.87;97543.69;10359509;28;20731;-77
2023/07/20 20:39:38;;;;;;;2.42;2.13;;;19.00;91.00;;;19.73;51.95;97545.84;10359466;28;20730;-76
2023/07/20 20:44:42;;;;;;;4.15;2.60;;;18.80;91.00;;;19.67;52.74;97550.06;10361625;28;20225;-78
2023/07/20 20:49:45;;;;;;;3.13;2.83;;;18.60;92.10;;;19.55;52.49;97548.13;10357025;28;20237;-77
2023/07/20 20:54:50;;;;;;;2.50;2.30;;;18.60;91.90;;;19.45;52.76;97552.25;10359050;28;20233;-77
2023/07/20 20:59:53;;;;;;;3.25;2.95;;;18.40;91.90;;;19.23;53.18;97539.78;10352393;28;20250;-79
2023/07/20 21:04:56;;;;;;;3.97;2.88;;;18.30;92.00;;;19.16;53.45;97538.81;10354134;28;20729;-77
2023/07/20 21:10:01;;;;;;;2.70;2.38;;;18.20;92.50;;;19.01;54.68;97535.94;10363989;28;20238;-77